sensor_id;sensor_type;location;lat;lon;timestamp;P1;durP1;ratioP1;P2;durP2;ratioP2
20988;SDS011;10653;47.052;15.410;2022-07-04T00:00:17;5.00;;;4.60;;
20988;SDS011;10653;47.052;15.410;2022-07-04T00:02:44;4.83;;;4.43;;
20988;SDS011;10653;47.052;15.410;2022-07-04T00:05:11;7.00;;;4.80;;
20988;SDS011;10653;47.052;15.410;2022-07-04T00:07:40;6.27;;;5.17;;
20988;SDS011;10653;47.052;15.410;2022-07-04T00:10:07;4.57;;;4.17;;
20988;SDS011;10653;47.052;15.410;2022-07-04T00:12:33;6.93;;;5.63;;
20988;SDS011;10653;47.052;15.410;2022-07-04T00:15:00;5.60;;;5.00;;
20988;SDS011;10653;47.052;15.410;2022-07-04T00:17:26;6.73;;;4.77;;
20988;SDS011;10653;47.052;15.410;2022-07-04T00:19:52;4.50;;;4.10;;
20988;SDS011;10653;47.052;15.410;2022-07-04T00:22:18;5.40;;;4.90;;
20988;SDS011;10653;47.052;15.410;2022-07-04T00:24:44;5.50;;;5.10;;
20988;SDS011;10653;47.052;15.410;2022-07-04T00:27:10;5.37;;;4.50;;
20988;SDS011;10653;47.052;15.410;2022-07-04T00:29:36;5.40;;;4.90;;
20988;SDS011;10653;47.052;15.410;2022-07-04T00:32:02;5.90;;;5.30;;
20988;SDS011;10653;47.052;15.410;2022-07-04T00:34:28;5.00;;;4.57;;
20988;SDS011;10653;47.052;15.410;2022-07-04T00:36:55;5.20;;;4.70;;
20988;SDS011;10653;47.052;15.410;2022-07-04T00:39:21;6.07;;;5.03;;
20988;SDS011;10653;47.052;15.410;2022-07-04T00:41:47;4.67;;;4.27;;
20988;SDS011;10653;47.052;15.410;2022-07-04T00:44:13;4.80;;;4.33;;
20988;SDS011;10653;47.052;15.410;2022-07-04T00:46:41;5.47;;;4.97;;
20988;SDS011;10653;47.052;15.410;2022-07-04T00:49:07;5.47;;;4.97;;
20988;SDS011;10653;47.052;15.410;2022-07-04T00:51:33;5.03;;;4.57;;
20988;SDS011;10653;47.052;15.410;2022-07-04T00:53:59;5.47;;;4.83;;
20988;SDS011;10653;47.052;15.410;2022-07-04T00:56:26;5.63;;;5.13;;
20988;SDS011;10653;47.052;15.410;2022-07-04T00:58:52;5.90;;;5.40;;
20988;SDS011;10653;47.052;15.410;2022-07-04T01:01:18;7.73;;;5.10;;
20988;SDS011;10653;47.052;15.410;2022-07-04T01:03:45;7.77;;;5.17;;
20988;SDS011;10653;47.052;15.410;2022-07-04T01:06:11;6.40;;;5.57;;
20988;SDS011;10653;47.052;15.410;2022-07-04T01:08:39;5.70;;;5.17;;
20988;SDS011;10653;47.052;15.410;2022-07-04T01:11:06;6.00;;;4.37;;
20988;SDS011;10653;47.052;15.410;2022-07-04T01:13:32;5.90;;;5.07;;
20988;SDS011;10653;47.052;15.410;2022-07-04T01:15:58;5.37;;;4.87;;
20988;SDS011;10653;47.052;15.410;2022-07-04T01:18:24;5.77;;;5.27;;
20988;SDS011;10653;47.052;15.410;2022-07-04T01:20:50;4.83;;;4.43;;
20988;SDS011;10653;47.052;15.410;2022-07-04T01:23:16;6.30;;;5.30;;
20988;SDS011;10653;47.052;15.410;2022-07-04T01:25:43;6.20;;;4.97;;
20988;SDS011;10653;47.052;15.410;2022-07-04T01:28:09;6.40;;;5.10;;
20988;SDS011;10653;47.052;15.410;2022-07-04T01:30:36;5.47;;;4.97;;
20988;SDS011;10653;47.052;15.410;2022-07-04T01:33:02;5.80;;;5.30;;
20988;SDS011;10653;47.052;15.410;2022-07-04T01:35:28;5.80;;;5.30;;
20988;SDS011;10653;47.052;15.410;2022-07-04T01:37:54;5.27;;;4.87;;
20988;SDS011;10653;47.052;15.410;2022-07-04T01:40:20;6.00;;;5.50;;
20988;SDS011;10653;47.052;15.410;2022-07-04T01:42:46;6.00;;;5.40;;
20988;SDS011;10653;47.052;15.410;2022-07-04T01:45:12;6.73;;;6.10;;
20988;SDS011;10653;47.052;15.410;2022-07-04T01:47:39;5.67;;;5.17;;
20988;SDS011;10653;47.052;15.410;2022-07-04T01:50:05;6.10;;;5.00;;
20988;SDS011;10653;47.052;15.410;2022-07-04T01:52:32;5.20;;;4.77;;
20988;SDS011;10653;47.052;15.410;2022-07-04T01:54:58;6.00;;;5.40;;
20988;SDS011;10653;47.052;15.410;2022-07-04T01:57:24;5.93;;;5.43;;
20988;SDS011;10653;47.052;15.410;2022-07-04T01:59:50;7.10;;;5.50;;
20988;SDS011;10653;47.052;15.410;2022-07-04T02:02:35;5.27;;;4.80;;
20988;SDS011;10653;47.052;15.410;2022-07-04T02:05:01;6.33;;;5.73;;
20988;SDS011;10653;47.052;15.410;2022-07-04T02:07:27;5.37;;;4.87;;
20988;SDS011;10653;47.052;15.410;2022-07-04T02:09:53;5.80;;;5.30;;
20988;SDS011;10653;47.052;15.410;2022-07-04T02:12:19;5.53;;;5.03;;
20988;SDS011;10653;47.052;15.410;2022-07-04T02:15:06;5.80;;;5.30;;
20988;SDS011;10653;47.052;15.410;2022-07-04T02:17:32;7.23;;;5.83;;
20988;SDS011;10653;47.052;15.410;2022-07-04T02:19:58;5.67;;;5.13;;
20988;SDS011;10653;47.052;15.410;2022-07-04T02:22:24;7.50;;;5.80;;
20988;SDS011;10653;47.052;15.410;2022-07-04T02:24:50;8.60;;;5.20;;
20988;SDS011;10653;47.052;15.410;2022-07-04T02:27:17;6.63;;;5.20;;
20988;SDS011;10653;47.052;15.410;2022-07-04T02:29:43;5.77;;;5.17;;
20988;SDS011;10653;47.052;15.410;2022-07-04T02:32:09;5.77;;;5.27;;
20988;SDS011;10653;47.052;15.410;2022-07-04T02:34:35;6.47;;;5.87;;
20988;SDS011;10653;47.052;15.410;2022-07-04T02:37:01;7.60;;;5.50;;
20988;SDS011;10653;47.052;15.410;2022-07-04T02:39:27;5.60;;;5.10;;
20988;SDS011;10653;47.052;15.410;2022-07-04T02:41:53;5.87;;;5.30;;
20988;SDS011;10653;47.052;15.410;2022-07-04T02:44:19;5.40;;;5.00;;
20988;SDS011;10653;47.052;15.410;2022-07-04T02:46:45;6.43;;;5.83;;
20988;SDS011;10653;47.052;15.410;2022-07-04T02:49:11;7.23;;;6.40;;
20988;SDS011;10653;47.052;15.410;2022-07-04T02:51:37;6.23;;;5.63;;
20988;SDS011;10653;47.052;15.410;2022-07-04T02:54:03;5.80;;;5.20;;
20988;SDS011;10653;47.052;15.410;2022-07-04T02:56:29;5.87;;;5.30;;
20988;SDS011;10653;47.052;15.410;2022-07-04T02:58:55;5.53;;;5.00;;
20988;SDS011;10653;47.052;15.410;2022-07-04T03:01:21;5.70;;;5.20;;
20988;SDS011;10653;47.052;15.410;2022-07-04T03:03:47;5.50;;;5.10;;
20988;SDS011;10653;47.052;15.410;2022-07-04T03:06:13;6.53;;;5.60;;
20988;SDS011;10653;47.052;15.410;2022-07-04T03:08:39;6.23;;;5.73;;
20988;SDS011;10653;47.052;15.410;2022-07-04T03:11:06;5.83;;;5.33;;
20988;SDS011;10653;47.052;15.410;2022-07-04T03:13:32;5.90;;;5.40;;
20988;SDS011;10653;47.052;15.410;2022-07-04T03:15:58;5.97;;;5.57;;
20988;SDS011;10653;47.052;15.410;2022-07-04T03:18:24;6.13;;;5.53;;
20988;SDS011;10653;47.052;15.410;2022-07-04T03:20:50;7.20;;;6.10;;
20988;SDS011;10653;47.052;15.410;2022-07-04T03:23:16;7.03;;;6.43;;
20988;SDS011;10653;47.052;15.410;2022-07-04T03:25:42;5.70;;;5.27;;
20988;SDS011;10653;47.052;15.410;2022-07-04T03:28:08;6.37;;;5.77;;
20988;SDS011;10653;47.052;15.410;2022-07-04T03:30:35;6.47;;;5.77;;
20988;SDS011;10653;47.052;15.410;2022-07-04T03:33:01;6.17;;;5.60;;
20988;SDS011;10653;47.052;15.410;2022-07-04T03:35:28;6.00;;;5.50;;
20988;SDS011;10653;47.052;15.410;2022-07-04T03:37:54;6.53;;;6.00;;
20988;SDS011;10653;47.052;15.410;2022-07-04T03:40:20;7.07;;;5.50;;
20988;SDS011;10653;47.052;15.410;2022-07-04T03:42:47;7.10;;;6.00;;
20988;SDS011;10653;47.052;15.410;2022-07-04T03:45:14;5.63;;;5.13;;
20988;SDS011;10653;47.052;15.410;2022-07-04T03:47:40;6.07;;;5.57;;
20988;SDS011;10653;47.052;15.410;2022-07-04T03:50:06;6.60;;;6.00;;
20988;SDS011;10653;47.052;15.410;2022-07-04T03:52:32;5.83;;;5.30;;
20988;SDS011;10653;47.052;15.410;2022-07-04T03:54:58;6.37;;;5.73;;
20988;SDS011;10653;47.052;15.410;2022-07-04T03:57:24;6.83;;;5.40;;
20988;SDS011;10653;47.052;15.410;2022-07-04T03:59:50;6.43;;;5.77;;
20988;SDS011;10653;47.052;15.410;2022-07-04T04:02:16;7.07;;;6.17;;
20988;SDS011;10653;47.052;15.410;2022-07-04T04:04:42;6.93;;;6.27;;
20988;SDS011;10653;47.052;15.410;2022-07-04T04:07:27;6.47;;;5.77;;
20988;SDS011;10653;47.052;15.410;2022-07-04T04:09:53;7.27;;;5.40;;
20988;SDS011;10653;47.052;15.410;2022-07-04T04:12:19;6.80;;;6.10;;
20988;SDS011;10653;47.052;15.410;2022-07-04T04:14:45;9.50;;;7.63;;
20988;SDS011;10653;47.052;15.410;2022-07-04T04:17:11;6.97;;;5.73;;
20988;SDS011;10653;47.052;15.410;2022-07-04T04:19:37;6.67;;;6.07;;
20988;SDS011;10653;47.052;15.410;2022-07-04T04:22:03;7.67;;;7.07;;
20988;SDS011;10653;47.052;15.410;2022-07-04T04:24:29;8.40;;;7.53;;
20988;SDS011;10653;47.052;15.410;2022-07-04T04:26:55;7.60;;;6.90;;
20988;SDS011;10653;47.052;15.410;2022-07-04T04:29:21;6.27;;;5.73;;
20988;SDS011;10653;47.052;15.410;2022-07-04T04:31:47;7.57;;;6.70;;
20988;SDS011;10653;47.052;15.410;2022-07-04T04:34:13;6.70;;;6.20;;
20988;SDS011;10653;47.052;15.410;2022-07-04T04:36:39;7.43;;;6.70;;
20988;SDS011;10653;47.052;15.410;2022-07-04T04:39:05;8.10;;;7.40;;
20988;SDS011;10653;47.052;15.410;2022-07-04T04:41:31;9.73;;;6.50;;
20988;SDS011;10653;47.052;15.410;2022-07-04T04:43:57;8.57;;;7.77;;
20988;SDS011;10653;47.052;15.410;2022-07-04T04:46:23;6.93;;;6.23;;
20988;SDS011;10653;47.052;15.410;2022-07-04T04:48:49;7.70;;;6.70;;
20988;SDS011;10653;47.052;15.410;2022-07-04T04:51:15;7.80;;;7.10;;
20988;SDS011;10653;47.052;15.410;2022-07-04T04:53:41;9.10;;;7.17;;
20988;SDS011;10653;47.052;15.410;2022-07-04T04:56:07;7.23;;;6.57;;
20988;SDS011;10653;47.052;15.410;2022-07-04T04:58:33;6.30;;;5.80;;
20988;SDS011;10653;47.052;15.410;2022-07-04T05:00:59;6.90;;;6.20;;
20988;SDS011;10653;47.052;15.410;2022-07-04T05:03:27;9.70;;;7.00;;
20988;SDS011;10653;47.052;15.410;2022-07-04T05:05:53;9.17;;;6.40;;
20988;SDS011;10653;47.052;15.410;2022-07-04T05:08:19;7.73;;;6.93;;
20988;SDS011;10653;47.052;15.410;2022-07-04T05:10:45;6.40;;;5.80;;
20988;SDS011;10653;47.052;15.410;2022-07-04T05:13:11;8.83;;;7.13;;
20988;SDS011;10653;47.052;15.410;2022-07-04T05:15:37;6.83;;;6.23;;
20988;SDS011;10653;47.052;15.410;2022-07-04T05:18:03;9.93;;;7.40;;
20988;SDS011;10653;47.052;15.410;2022-07-04T05:20:29;7.50;;;5.67;;
20988;SDS011;10653;47.052;15.410;2022-07-04T05:22:55;8.80;;;7.80;;
20988;SDS011;10653;47.052;15.410;2022-07-04T05:25:21;7.17;;;6.47;;
20988;SDS011;10653;47.052;15.410;2022-07-04T05:27:47;7.87;;;7.20;;
20988;SDS011;10653;47.052;15.410;2022-07-04T05:30:14;7.93;;;6.63;;
20988;SDS011;10653;47.052;15.410;2022-07-04T05:32:40;8.00;;;7.30;;
20988;SDS011;10653;47.052;15.410;2022-07-04T05:35:07;7.10;;;6.50;;
20988;SDS011;10653;47.052;15.410;2022-07-04T05:37:33;9.30;;;7.23;;
20988;SDS011;10653;47.052;15.410;2022-07-04T05:40:00;9.87;;;7.17;;
20988;SDS011;10653;47.052;15.410;2022-07-04T05:42:26;8.93;;;6.80;;
20988;SDS011;10653;47.052;15.410;2022-07-04T05:44:53;6.90;;;6.30;;
20988;SDS011;10653;47.052;15.410;2022-07-04T05:47:19;7.40;;;6.60;;
20988;SDS011;10653;47.052;15.410;2022-07-04T05:49:48;7.90;;;7.10;;
20988;SDS011;10653;47.052;15.410;2022-07-04T05:52:14;9.00;;;6.90;;
20988;SDS011;10653;47.052;15.410;2022-07-04T05:54:40;8.07;;;7.13;;
20988;SDS011;10653;47.052;15.410;2022-07-04T05:57:07;8.03;;;7.33;;
20988;SDS011;10653;47.052;15.410;2022-07-04T05:59:33;7.70;;;7.00;;
20988;SDS011;10653;47.052;15.410;2022-07-04T06:01:59;9.20;;;7.30;;
20988;SDS011;10653;47.052;15.410;2022-07-04T06:04:25;8.00;;;7.30;;
20988;SDS011;10653;47.052;15.410;2022-07-04T06:06:51;10.13;;;8.40;;
20988;SDS011;10653;47.052;15.410;2022-07-04T06:09:17;8.23;;;7.50;;
20988;SDS011;10653;47.052;15.410;2022-07-04T06:11:43;7.10;;;6.40;;
20988;SDS011;10653;47.052;15.410;2022-07-04T06:14:09;8.33;;;7.40;;
20988;SDS011;10653;47.052;15.410;2022-07-04T06:16:35;7.43;;;6.73;;
20988;SDS011;10653;47.052;15.410;2022-07-04T06:19:01;8.93;;;8.07;;
20988;SDS011;10653;47.052;15.410;2022-07-04T06:21:28;7.47;;;6.77;;
20988;SDS011;10653;47.052;15.410;2022-07-04T06:23:54;9.20;;;8.30;;
20988;SDS011;10653;47.052;15.410;2022-07-04T06:26:20;8.23;;;6.60;;
20988;SDS011;10653;47.052;15.410;2022-07-04T06:28:46;7.47;;;6.77;;
20988;SDS011;10653;47.052;15.410;2022-07-04T06:31:12;7.50;;;6.80;;
20988;SDS011;10653;47.052;15.410;2022-07-04T06:33:38;9.07;;;7.10;;
20988;SDS011;10653;47.052;15.410;2022-07-04T06:36:23;8.07;;;7.30;;
20988;SDS011;10653;47.052;15.410;2022-07-04T06:38:49;10.23;;;8.17;;
20988;SDS011;10653;47.052;15.410;2022-07-04T06:41:15;16.17;;;8.93;;
20988;SDS011;10653;47.052;15.410;2022-07-04T06:43:41;9.20;;;8.00;;
20988;SDS011;10653;47.052;15.410;2022-07-04T06:46:08;10.80;;;8.13;;
20988;SDS011;10653;47.052;15.410;2022-07-04T06:48:34;8.20;;;7.30;;
20988;SDS011;10653;47.052;15.410;2022-07-04T06:51:01;8.47;;;7.67;;
20988;SDS011;10653;47.052;15.410;2022-07-04T06:53:27;8.70;;;7.30;;
20988;SDS011;10653;47.052;15.410;2022-07-04T06:55:53;12.93;;;8.03;;
20988;SDS011;10653;47.052;15.410;2022-07-04T06:58:19;9.80;;;7.37;;
20988;SDS011;10653;47.052;15.410;2022-07-04T07:00:45;7.60;;;6.77;;
20988;SDS011;10653;47.052;15.410;2022-07-04T07:03:11;8.30;;;6.60;;
20988;SDS011;10653;47.052;15.410;2022-07-04T07:05:37;13.20;;;7.87;;
20988;SDS011;10653;47.052;15.410;2022-07-04T07:08:03;8.50;;;7.80;;
20988;SDS011;10653;47.052;15.410;2022-07-04T07:10:30;9.13;;;7.67;;
20988;SDS011;10653;47.052;15.410;2022-07-04T07:13:00;10.30;;;7.30;;
20988;SDS011;10653;47.052;15.410;2022-07-04T07:15:26;8.30;;;7.30;;
20988;SDS011;10653;47.052;15.410;2022-07-04T07:17:52;8.70;;;7.60;;
20988;SDS011;10653;47.052;15.410;2022-07-04T07:20:18;9.20;;;7.60;;
20988;SDS011;10653;47.052;15.410;2022-07-04T07:22:44;13.73;;;7.37;;
20988;SDS011;10653;47.052;15.410;2022-07-04T07:25:10;12.10;;;7.60;;
20988;SDS011;10653;47.052;15.410;2022-07-04T07:27:37;7.50;;;6.30;;
20988;SDS011;10653;47.052;15.410;2022-07-04T07:30:03;6.13;;;5.63;;
20988;SDS011;10653;47.052;15.410;2022-07-04T07:32:30;6.20;;;5.60;;
20988;SDS011;10653;47.052;15.410;2022-07-04T07:34:56;6.27;;;5.67;;
20988;SDS011;10653;47.052;15.410;2022-07-04T07:37:22;7.37;;;6.10;;
20988;SDS011;10653;47.052;15.410;2022-07-04T07:39:49;6.67;;;5.80;;
20988;SDS011;10653;47.052;15.410;2022-07-04T07:42:15;9.83;;;6.90;;
20988;SDS011;10653;47.052;15.410;2022-07-04T07:44:42;6.83;;;6.20;;
20988;SDS011;10653;47.052;15.410;2022-07-04T07:47:11;6.33;;;5.83;;
20988;SDS011;10653;47.052;15.410;2022-07-04T07:49:37;6.50;;;5.93;;
20988;SDS011;10653;47.052;15.410;2022-07-04T07:52:03;7.37;;;6.57;;
20988;SDS011;10653;47.052;15.410;2022-07-04T07:54:29;6.57;;;5.87;;
20988;SDS011;10653;47.052;15.410;2022-07-04T07:56:55;5.77;;;5.37;;
20988;SDS011;10653;47.052;15.410;2022-07-04T07:59:21;6.30;;;5.70;;
20988;SDS011;10653;47.052;15.410;2022-07-04T08:01:47;6.57;;;5.87;;
20988;SDS011;10653;47.052;15.410;2022-07-04T08:04:13;6.70;;;6.20;;
20988;SDS011;10653;47.052;15.410;2022-07-04T08:07:14;6.30;;;5.80;;
20988;SDS011;10653;47.052;15.410;2022-07-04T08:09:40;5.00;;;4.60;;
20988;SDS011;10653;47.052;15.410;2022-07-04T08:12:06;5.83;;;5.23;;
20988;SDS011;10653;47.052;15.410;2022-07-04T08:14:33;5.83;;;5.10;;
20988;SDS011;10653;47.052;15.410;2022-07-04T08:16:59;5.00;;;4.60;;
20988;SDS011;10653;47.052;15.410;2022-07-04T08:19:26;5.30;;;4.80;;
20988;SDS011;10653;47.052;15.410;2022-07-04T08:21:52;6.53;;;4.60;;
20988;SDS011;10653;47.052;15.410;2022-07-04T08:24:18;5.63;;;4.77;;
20988;SDS011;10653;47.052;15.410;2022-07-04T08:26:44;5.07;;;4.30;;
20988;SDS011;10653;47.052;15.410;2022-07-04T08:29:10;4.83;;;4.43;;
20988;SDS011;10653;47.052;15.410;2022-07-04T08:31:37;4.73;;;4.33;;
20988;SDS011;10653;47.052;15.410;2022-07-04T08:34:03;4.20;;;3.90;;
20988;SDS011;10653;47.052;15.410;2022-07-04T08:36:29;4.30;;;3.93;;
20988;SDS011;10653;47.052;15.410;2022-07-04T08:38:55;4.07;;;3.70;;
20988;SDS011;10653;47.052;15.410;2022-07-04T08:41:21;5.07;;;4.63;;
20988;SDS011;10653;47.052;15.410;2022-07-04T08:43:47;4.03;;;3.73;;
20988;SDS011;10653;47.052;15.410;2022-07-04T08:46:15;4.90;;;4.50;;
20988;SDS011;10653;47.052;15.410;2022-07-04T08:48:49;3.93;;;3.63;;
20988;SDS011;10653;47.052;15.410;2022-07-04T08:51:17;5.23;;;4.83;;
20988;SDS011;10653;47.052;15.410;2022-07-04T08:53:52;4.80;;;4.40;;
20988;SDS011;10653;47.052;15.410;2022-07-04T08:56:21;4.97;;;4.47;;
20988;SDS011;10653;47.052;15.410;2022-07-04T08:59:06;4.93;;;4.53;;
20988;SDS011;10653;47.052;15.410;2022-07-04T09:01:33;5.23;;;4.50;;
20988;SDS011;10653;47.052;15.410;2022-07-04T09:04:01;6.80;;;4.90;;
20988;SDS011;10653;47.052;15.410;2022-07-04T09:06:27;4.20;;;3.80;;
20988;SDS011;10653;47.052;15.410;2022-07-04T09:08:54;5.10;;;4.70;;
20988;SDS011;10653;47.052;15.410;2022-07-04T09:11:20;4.97;;;4.57;;
20988;SDS011;10653;47.052;15.410;2022-07-04T09:13:46;4.40;;;4.00;;
20988;SDS011;10653;47.052;15.410;2022-07-04T09:16:13;4.37;;;4.03;;
20988;SDS011;10653;47.052;15.410;2022-07-04T09:18:39;5.83;;;4.83;;
20988;SDS011;10653;47.052;15.410;2022-07-04T09:21:08;4.77;;;4.37;;
20988;SDS011;10653;47.052;15.410;2022-07-04T09:23:35;5.90;;;4.60;;
20988;SDS011;10653;47.052;15.410;2022-07-04T09:26:21;4.43;;;4.13;;
20988;SDS011;10653;47.052;15.410;2022-07-04T09:28:51;5.80;;;4.80;;
20988;SDS011;10653;47.052;15.410;2022-07-04T09:31:22;4.73;;;4.33;;
20988;SDS011;10653;47.052;15.410;2022-07-04T09:33:52;5.30;;;4.90;;
20988;SDS011;10653;47.052;15.410;2022-07-04T09:36:19;4.77;;;4.30;;
20988;SDS011;10653;47.052;15.410;2022-07-04T09:38:46;4.83;;;4.43;;
20988;SDS011;10653;47.052;15.410;2022-07-04T09:41:29;5.63;;;5.13;;
20988;SDS011;10653;47.052;15.410;2022-07-04T09:44:03;5.57;;;5.07;;
20988;SDS011;10653;47.052;15.410;2022-07-04T09:46:30;5.27;;;4.60;;
20988;SDS011;10653;47.052;15.410;2022-07-04T09:48:56;7.00;;;4.77;;
20988;SDS011;10653;47.052;15.410;2022-07-04T09:56:47;5.50;;;5.00;;
20988;SDS011;10653;47.052;15.410;2022-07-04T09:59:13;5.10;;;4.53;;
20988;SDS011;10653;47.052;15.410;2022-07-04T10:01:39;8.20;;;4.93;;
20988;SDS011;10653;47.052;15.410;2022-07-04T10:04:06;5.27;;;4.80;;
20988;SDS011;10653;47.052;15.410;2022-07-04T10:06:33;5.60;;;5.10;;
20988;SDS011;10653;47.052;15.410;2022-07-04T10:09:06;5.13;;;4.70;;
20988;SDS011;10653;47.052;15.410;2022-07-04T10:11:33;6.30;;;5.60;;
20988;SDS011;10653;47.052;15.410;2022-07-04T10:14:00;6.53;;;5.93;;
20988;SDS011;10653;47.052;15.410;2022-07-04T10:16:26;5.60;;;5.10;;
20988;SDS011;10653;47.052;15.410;2022-07-04T10:18:52;5.57;;;5.03;;
20988;SDS011;10653;47.052;15.410;2022-07-04T10:21:20;5.50;;;5.00;;
20988;SDS011;10653;47.052;15.410;2022-07-04T10:23:46;5.33;;;4.73;;
20988;SDS011;10653;47.052;15.410;2022-07-04T10:26:13;5.90;;;5.10;;
20988;SDS011;10653;47.052;15.410;2022-07-04T10:28:39;5.53;;;4.50;;
20988;SDS011;10653;47.052;15.410;2022-07-04T10:31:06;5.70;;;5.20;;
20988;SDS011;10653;47.052;15.410;2022-07-04T10:33:32;5.10;;;4.60;;
20988;SDS011;10653;47.052;15.410;2022-07-04T10:38:33;5.33;;;4.93;;
20988;SDS011;10653;47.052;15.410;2022-07-04T10:48:48;6.37;;;5.77;;
20988;SDS011;10653;47.052;15.410;2022-07-04T10:51:14;6.13;;;5.57;;
20988;SDS011;10653;47.052;15.410;2022-07-04T10:54:00;4.77;;;4.43;;
20988;SDS011;10653;47.052;15.410;2022-07-04T10:58:52;6.40;;;4.83;;
20988;SDS011;10653;47.052;15.410;2022-07-04T11:01:19;5.10;;;4.70;;
20988;SDS011;10653;47.052;15.410;2022-07-04T11:03:47;5.37;;;4.97;;
20988;SDS011;10653;47.052;15.410;2022-07-04T11:11:50;5.90;;;5.40;;
20988;SDS011;10653;47.052;15.410;2022-07-04T11:17:01;6.00;;;5.40;;
20988;SDS011;10653;47.052;15.410;2022-07-04T11:19:27;5.27;;;4.87;;
20988;SDS011;10653;47.052;15.410;2022-07-04T11:21:57;5.83;;;5.33;;
20988;SDS011;10653;47.052;15.410;2022-07-04T11:24:24;7.27;;;5.00;;
20988;SDS011;10653;47.052;15.410;2022-07-04T11:26:50;7.40;;;5.70;;
20988;SDS011;10653;47.052;15.410;2022-07-04T11:29:17;5.37;;;4.97;;
20988;SDS011;10653;47.052;15.410;2022-07-04T11:31:44;5.63;;;5.20;;
20988;SDS011;10653;47.052;15.410;2022-07-04T11:34:10;5.53;;;5.13;;
20988;SDS011;10653;47.052;15.410;2022-07-04T11:36:40;5.93;;;4.37;;
20988;SDS011;10653;47.052;15.410;2022-07-04T11:39:10;5.33;;;4.83;;
20988;SDS011;10653;47.052;15.410;2022-07-04T11:44:23;5.23;;;4.83;;
20988;SDS011;10653;47.052;15.410;2022-07-04T11:49:34;4.60;;;4.30;;
20988;SDS011;10653;47.052;15.410;2022-07-04T11:52:00;5.00;;;4.43;;
20988;SDS011;10653;47.052;15.410;2022-07-04T11:54:26;5.07;;;4.67;;
20988;SDS011;10653;47.052;15.410;2022-07-04T11:56:52;5.17;;;4.77;;
20988;SDS011;10653;47.052;15.410;2022-07-04T11:59:33;5.40;;;4.10;;
20988;SDS011;10653;47.052;15.410;2022-07-04T12:02:09;4.83;;;4.43;;
20988;SDS011;10653;47.052;15.410;2022-07-04T12:04:36;4.37;;;3.90;;
20988;SDS011;10653;47.052;15.410;2022-07-04T12:07:07;4.33;;;3.93;;
20988;SDS011;10653;47.052;15.410;2022-07-04T12:09:34;4.70;;;3.60;;
20988;SDS011;10653;47.052;15.410;2022-07-04T12:12:00;4.37;;;3.90;;
20988;SDS011;10653;47.052;15.410;2022-07-04T12:14:26;5.07;;;4.23;;
20988;SDS011;10653;47.052;15.410;2022-07-04T12:17:08;4.03;;;3.63;;
20988;SDS011;10653;47.052;15.410;2022-07-04T12:19:34;4.00;;;3.30;;
20988;SDS011;10653;47.052;15.410;2022-07-04T12:22:01;3.57;;;3.37;;
20988;SDS011;10653;47.052;15.410;2022-07-04T12:24:27;3.90;;;3.50;;
20988;SDS011;10653;47.052;15.410;2022-07-04T12:26:53;4.80;;;3.60;;
20988;SDS011;10653;47.052;15.410;2022-07-04T12:29:20;4.90;;;4.20;;
20988;SDS011;10653;47.052;15.410;2022-07-04T12:31:50;4.17;;;3.87;;
20988;SDS011;10653;47.052;15.410;2022-07-04T12:34:16;3.70;;;3.40;;
20988;SDS011;10653;47.052;15.410;2022-07-04T12:36:53;4.00;;;3.70;;
20988;SDS011;10653;47.052;15.410;2022-07-04T12:39:29;4.00;;;3.70;;
20988;SDS011;10653;47.052;15.410;2022-07-04T12:44:30;4.30;;;4.00;;
20988;SDS011;10653;47.052;15.410;2022-07-04T12:46:56;4.37;;;4.07;;
20988;SDS011;10653;47.052;15.410;2022-07-04T12:49:22;4.87;;;4.50;;
20988;SDS011;10653;47.052;15.410;2022-07-04T12:51:48;4.53;;;4.13;;
20988;SDS011;10653;47.052;15.410;2022-07-04T12:54:14;4.90;;;4.60;;
20988;SDS011;10653;47.052;15.410;2022-07-04T12:56:42;4.93;;;4.53;;
20988;SDS011;10653;47.052;15.410;2022-07-04T12:59:09;5.07;;;4.67;;
20988;SDS011;10653;47.052;15.410;2022-07-04T13:01:36;5.57;;;4.97;;
20988;SDS011;10653;47.052;15.410;2022-07-04T13:04:02;4.87;;;4.47;;
20988;SDS011;10653;47.052;15.410;2022-07-04T13:06:29;4.87;;;4.47;;
20988;SDS011;10653;47.052;15.410;2022-07-04T13:08:55;4.90;;;4.60;;
20988;SDS011;10653;47.052;15.410;2022-07-04T13:11:22;4.90;;;4.50;;
20988;SDS011;10653;47.052;15.410;2022-07-04T13:14:07;5.30;;;4.87;;
20988;SDS011;10653;47.052;15.410;2022-07-04T13:16:33;4.67;;;4.33;;
20988;SDS011;10653;47.052;15.410;2022-07-04T13:19:00;4.70;;;4.40;;
20988;SDS011;10653;47.052;15.410;2022-07-04T13:21:26;4.83;;;4.43;;
20988;SDS011;10653;47.052;15.410;2022-07-04T13:23:52;5.07;;;4.67;;
20988;SDS011;10653;47.052;15.410;2022-07-04T13:26:18;4.90;;;4.50;;
20988;SDS011;10653;47.052;15.410;2022-07-04T13:28:44;5.73;;;5.20;;
20988;SDS011;10653;47.052;15.410;2022-07-04T13:31:10;5.50;;;5.10;;
20988;SDS011;10653;47.052;15.410;2022-07-04T13:33:36;5.17;;;4.77;;
20988;SDS011;10653;47.052;15.410;2022-07-04T13:36:02;5.37;;;4.20;;
20988;SDS011;10653;47.052;15.410;2022-07-04T13:38:28;5.03;;;4.63;;
20988;SDS011;10653;47.052;15.410;2022-07-04T13:40:54;4.30;;;3.90;;
20988;SDS011;10653;47.052;15.410;2022-07-04T13:43:22;9.30;;;4.60;;
20988;SDS011;10653;47.052;15.410;2022-07-04T13:45:48;5.60;;;5.20;;
20988;SDS011;10653;47.052;15.410;2022-07-04T13:48:14;5.13;;;4.73;;
20988;SDS011;10653;47.052;15.410;2022-07-04T13:50:40;5.37;;;4.87;;
20988;SDS011;10653;47.052;15.410;2022-07-04T13:53:09;5.17;;;4.67;;
20988;SDS011;10653;47.052;15.410;2022-07-04T13:55:35;5.13;;;4.73;;
20988;SDS011;10653;47.052;15.410;2022-07-04T13:58:02;5.10;;;4.70;;
20988;SDS011;10653;47.052;15.410;2022-07-04T14:00:28;5.37;;;4.87;;
20988;SDS011;10653;47.052;15.410;2022-07-04T14:02:54;5.43;;;4.93;;
20988;SDS011;10653;47.052;15.410;2022-07-04T14:05:20;5.03;;;4.40;;
20988;SDS011;10653;47.052;15.410;2022-07-04T14:07:47;4.50;;;4.10;;
20988;SDS011;10653;47.052;15.410;2022-07-04T14:10:13;5.37;;;4.97;;
20988;SDS011;10653;47.052;15.410;2022-07-04T14:12:39;5.20;;;4.80;;
20988;SDS011;10653;47.052;15.410;2022-07-04T14:15:05;4.73;;;4.33;;
20988;SDS011;10653;47.052;15.410;2022-07-04T14:17:31;4.83;;;4.43;;
20988;SDS011;10653;47.052;15.410;2022-07-04T14:19:57;4.73;;;4.33;;
20988;SDS011;10653;47.052;15.410;2022-07-04T14:22:24;4.73;;;4.33;;
20988;SDS011;10653;47.052;15.410;2022-07-04T14:24:50;4.40;;;4.10;;
20988;SDS011;10653;47.052;15.410;2022-07-04T14:27:15;4.17;;;3.77;;
20988;SDS011;10653;47.052;15.410;2022-07-04T14:29:42;4.80;;;4.40;;
20988;SDS011;10653;47.052;15.410;2022-07-04T14:32:08;4.93;;;4.43;;
20988;SDS011;10653;47.052;15.410;2022-07-04T14:34:34;4.33;;;4.03;;
20988;SDS011;10653;47.052;15.410;2022-07-04T14:37:00;4.67;;;4.10;;
20988;SDS011;10653;47.052;15.410;2022-07-04T14:39:26;5.40;;;5.00;;
20988;SDS011;10653;47.052;15.410;2022-07-04T14:41:52;5.10;;;4.70;;
20988;SDS011;10653;47.052;15.410;2022-07-04T14:44:18;4.17;;;3.77;;
20988;SDS011;10653;47.052;15.410;2022-07-04T14:46:44;4.20;;;3.80;;
20988;SDS011;10653;47.052;15.410;2022-07-04T14:49:10;4.73;;;4.40;;
20988;SDS011;10653;47.052;15.410;2022-07-04T14:51:36;4.93;;;4.33;;
20988;SDS011;10653;47.052;15.410;2022-07-04T14:54:07;4.57;;;4.27;;
20988;SDS011;10653;47.052;15.410;2022-07-04T14:56:33;4.60;;;4.30;;
20988;SDS011;10653;47.052;15.410;2022-07-04T14:58:59;4.30;;;4.00;;
20988;SDS011;10653;47.052;15.410;2022-07-04T15:01:25;4.83;;;4.43;;
20988;SDS011;10653;47.052;15.410;2022-07-04T15:03:52;5.53;;;4.27;;
20988;SDS011;10653;47.052;15.410;2022-07-04T15:06:19;4.00;;;3.70;;